Lantana, FL

3:28 AM EDT on May 24, 2015 (GMT -0400)
Island Estates | | Change Station
CLOSE
Current Station
Personal Weather Station
Location: Lantana, FL
Elevation: 45 ft
Nearby Weather Stations

Elev 45 ft 26.57 °N, 80.08 °W | Updated 2 minutes ago

Partly Cloudy
Partly Cloudy
80.1 °F
Feels Like 84 °F
N
5.0
Wind Variable Wind from East
Gusts 5.0 mph

Today
High -- | Low -- °F
--% Chance of Precip.
Yesterday
High -- | Low -- °F
Precip. -- in
6:29 AM 8:05 PM
Waxing Crescent, 37% visible
Pressure 30.15 in
Visibility 10.0 miles
Clouds Few 2400 ft
Few 5000 ft
Heat Index 84 °F
Dew Point 73 °F
Humidity 78%
Rainfall 0.00 in
Snow Depth Not available.
UV 0 out of 12
Pollen 4.30 out of 12
Air Quality Not available.
Flu Activity Sporadic
METAR KPBI 240653Z 10009KT 10SM FEW024 FEW050 27/22 A3015 RMK AO2 SLP210 T02670222 $

More Conditions Fewer Conditions

Pressure 30.15 in
Visibility 10.0 miles
Clouds Few 2400 ft
Few 5000 ft
Heat Index 84 °F
Dew Point 73 °F
Humidity 78%
Rainfall 0.00 in
Snow Depth Not available.
UV 0 out of 12
Pollen 4.30 out of 12
Air Quality Not available.
Flu Activity Sporadic
METAR KPBI 240653Z 10009KT 10SM FEW024 FEW050 27/22 A3015 RMK AO2 SLP210 T02670222 $

More Conditions Fewer Conditions

Nowcast | as of 1:49 am EDT on May 24, 2015

Through early this morning...isolated to scattered showers will continue to develop over the Atlantic waters and move westward into the Metro areas of Palm Beach County before dissipating over the interior areas and Lake Okeechobee. Rainfall amounts up to tenth of an inch can be expected with the showers and mariners can expect higher waves in and near the showers.

×

10-Day Weather Forecast

Almanac

Astronomy

May. 24, 2015 Rise Set
Actual Time
Civil Twilight
Nautical Twilight
Astronomical Twilight
Moon
Length of Visible Light
Length of Day
Tomorrow will be .
, % of the Moon is Illuminated

Today's Extremes

State Highs State Lows

Community

WunderPhotos

Upload Photos

1,823,698 photos uploaded!

WunderBlogs® & News

Nearby

Air Quality

  Air Quality AQ Index Pollutant
Not available.

Snow Depth

Station Depth Elevation

Earthquake Activity

City Distance Mag. Time & Date
Minimum magnitude displayed is 2.5.

Coastal Water Temperatures

Place Temperature

Stations

Nearby Weather Stations

Station Location Temp. Windchill Dew Point Humidity Wind Precip. Elev Updated Type